createdAt,value
2019-01-24T00:00:15.583Z,36.20
2019-01-24T00:03:10.275Z,33.67
2019-01-24T00:06:03.177Z,35.75
2019-01-24T00:08:58.613Z,38.38
2019-01-24T00:11:52.499Z,34.18
2019-01-24T00:14:45.779Z,33.33
2019-01-24T00:17:40.871Z,36.23
2019-01-24T00:21:03.554Z,35.52
2019-01-24T00:23:53.162Z,36.65
2019-01-24T00:26:43.266Z,37.70
2019-01-24T00:29:33.313Z,34.03
2019-01-24T00:32:23.349Z,33.67
2019-01-24T00:35:13.883Z,33.02
2019-01-24T00:38:03.961Z,35.23
2019-01-24T00:40:54.072Z,32.63
2019-01-24T00:43:43.919Z,33.90
2019-01-24T00:46:33.908Z,32.80
2019-01-24T00:49:23.677Z,33.53
2019-01-24T00:52:13.779Z,32.80
2019-01-24T00:55:03.870Z,30.35
2019-01-24T00:57:53.732Z,34.58
2019-01-24T01:00:43.638Z,30.82
2019-01-24T01:03:33.481Z,30.85
2019-01-24T01:06:23.303Z,29.65
2019-01-24T01:09:13.250Z,27.20
2019-01-24T01:12:03.161Z,29.15
2019-01-24T01:14:53.330Z,23.60
2019-01-24T01:17:44.032Z,25.32
2019-01-24T01:20:33.910Z,27.50
2019-01-24T01:23:23.919Z,29.42
2019-01-24T01:26:14.085Z,30.97
2019-01-24T01:29:04.189Z,30.95
2019-01-24T01:31:54.257Z,32.63
2019-01-24T01:34:43.972Z,30.20
2019-01-24T01:37:34.038Z,30.55
2019-01-24T01:40:25.065Z,33.78
2019-01-24T01:43:14.861Z,30.35
2019-01-24T01:46:04.302Z,29.32
2019-01-24T01:48:54.383Z,31.17
2019-01-24T01:51:44.394Z,32.42
2019-01-24T01:54:34.337Z,30.80
2019-01-24T01:57:24.119Z,31.33
2019-01-24T02:00:16.708Z,32.75
2019-01-24T02:03:06.672Z,27.32
2019-01-24T02:05:56.418Z,31.52
2019-01-24T02:08:46.939Z,31.07
2019-01-24T02:11:36.900Z,29.40
2019-01-24T02:14:26.711Z,32.73
2019-01-24T02:17:16.588Z,30.40
2019-01-24T02:20:08.482Z,27.82
2019-01-24T02:22:57.901Z,27.62
2019-01-24T02:25:47.740Z,27.73
2019-01-24T02:28:38.240Z,27.32
2019-01-24T02:31:28.042Z,29.35
2019-01-24T02:34:18.159Z,29.10
2019-01-24T02:37:08.022Z,32.42
2019-01-24T02:39:57.801Z,28.83
2019-01-24T02:42:47.261Z,26.05
2019-01-24T02:45:37.400Z,27.67
2019-01-24T02:48:27.119Z,27.87
2019-01-24T02:51:17.242Z,27.52
2019-01-24T02:54:07.003Z,22.10
2019-01-24T02:56:57.095Z,32.25
2019-01-24T02:59:47.339Z,28.85
2019-01-24T03:02:37.050Z,27.25
2019-01-24T03:05:27.090Z,24.90
2019-01-24T03:08:20.267Z,23.22
2019-01-24T03:11:09.844Z,28.00
2019-01-24T03:13:59.982Z,27.77
2019-01-24T03:16:49.929Z,25.80
2019-01-24T03:19:39.619Z,32.60
2019-01-24T03:22:29.365Z,30.05
2019-01-24T03:26:02.097Z,31.95
2019-01-24T03:28:52.239Z,27.65
2019-01-24T03:31:42.088Z,29.48
2019-01-24T03:34:31.811Z,25.23
2019-01-24T03:37:21.697Z,22.42
2019-01-24T03:40:13.110Z,29.20
2019-01-24T03:43:03.120Z,31.80
2019-01-24T03:45:53.896Z,24.90
2019-01-24T03:48:43.522Z,28.20
2019-01-24T03:51:34.063Z,24.45
2019-01-24T03:54:24.223Z,25.37
2019-01-24T03:57:14.028Z,26.57
2019-01-24T04:00:04.331Z,24.67
2019-01-24T04:02:54.230Z,26.33
2019-01-24T04:05:43.912Z,26.90
2019-01-24T04:08:33.688Z,22.82
2019-01-24T04:11:23.648Z,27.20
2019-01-24T04:14:13.252Z,27.42
2019-01-24T04:17:03.425Z,27.10
2019-01-24T04:19:53.398Z,18.90
2019-01-24T04:22:43.299Z,24.70
2019-01-24T04:25:33.202Z,24.02
2019-01-24T04:28:23.081Z,25.00
2019-01-24T04:31:12.718Z,25.43
2019-01-24T04:34:02.934Z,20.70
2019-01-24T04:36:52.592Z,25.65
2019-01-24T04:39:42.460Z,24.37
2019-01-24T04:42:32.471Z,25.20
2019-01-24T04:45:22.429Z,26.33
2019-01-24T04:48:12.442Z,23.62
2019-01-24T04:51:02.318Z,32.65
2019-01-24T04:53:53.113Z,23.10
2019-01-24T04:56:43.011Z,22.13
2019-01-24T04:59:32.739Z,25.17
2019-01-24T05:02:22.247Z,25.30
2019-01-24T05:05:11.919Z,22.67
2019-01-24T05:08:02.008Z,23.95
2019-01-24T05:10:52.091Z,23.87
2019-01-24T05:13:41.823Z,26.25
2019-01-24T05:16:31.628Z,25.05
2019-01-24T05:19:21.862Z,25.00
2019-01-24T05:22:11.909Z,21.60
2019-01-24T05:25:01.618Z,20.15
2019-01-24T05:27:51.284Z,23.07
2019-01-24T05:30:41.070Z,22.02
2019-01-24T05:33:30.929Z,21.17
2019-01-24T05:36:20.908Z,21.07
2019-01-24T05:39:11.030Z,20.60
2019-01-24T05:42:01.120Z,23.77
2019-01-24T05:44:51.100Z,22.93
2019-01-24T05:47:40.857Z,21.07
2019-01-24T05:50:30.572Z,23.75
2019-01-24T05:53:20.442Z,22.05
2019-01-24T05:56:10.222Z,18.75
2019-01-24T05:58:59.898Z,18.73
2019-01-24T06:01:51.182Z,21.52
2019-01-24T06:04:42.131Z,17.30
2019-01-24T06:07:31.961Z,18.50
2019-01-24T06:10:21.974Z,21.27
2019-01-24T06:13:11.628Z,21.87
2019-01-24T06:16:01.221Z,20.55
2019-01-24T06:18:50.979Z,19.05
2019-01-24T06:21:41.453Z,20.27
2019-01-24T06:24:31.038Z,20.55
2019-01-24T06:27:21.323Z,23.00
2019-01-24T06:30:17.121Z,22.77
2019-01-24T06:33:07.044Z,18.20
2019-01-24T06:35:57.351Z,20.60
2019-01-24T06:38:47.318Z,19.95
2019-01-24T06:41:37.218Z,20.00
2019-01-24T06:44:27.218Z,21.95
2019-01-24T06:47:17.260Z,21.68
2019-01-24T06:50:08.263Z,20.40
2019-01-24T06:52:57.956Z,19.40
2019-01-24T06:55:48.968Z,14.50
2019-01-24T06:58:38.860Z,17.42
2019-01-24T07:01:28.648Z,22.75
2019-01-24T07:04:18.718Z,20.72
2019-01-24T07:07:08.459Z,18.42
2019-01-24T07:09:58.322Z,19.25
2019-01-24T07:12:51.445Z,19.25
2019-01-24T07:15:42.052Z,19.60
2019-01-24T07:18:32.074Z,19.27
2019-01-24T07:21:22.239Z,18.57
2019-01-24T07:24:12.451Z,20.30
2019-01-24T07:27:02.534Z,18.75
2019-01-24T07:29:52.158Z,17.42
2019-01-24T07:32:42.379Z,19.77
2019-01-24T07:35:32.027Z,19.80
2019-01-24T07:38:21.699Z,19.55
2019-01-24T07:41:11.610Z,18.27
2019-01-24T07:44:01.653Z,18.70
2019-01-24T07:46:51.772Z,19.85
2019-01-24T07:49:41.731Z,17.62
2019-01-24T07:52:31.942Z,19.30
2019-01-24T07:55:22.629Z,20.52
2019-01-24T07:58:12.598Z,18.30
2019-01-24T08:01:02.521Z,19.30
2019-01-24T08:03:52.301Z,21.35
2019-01-24T08:06:42.324Z,18.75
2019-01-24T08:09:32.281Z,16.05
2019-01-24T08:12:22.418Z,20.05
2019-01-24T08:15:13.479Z,19.50
2019-01-24T08:18:03.563Z,27.40
2019-01-24T08:20:53.308Z,18.20
2019-01-24T08:23:43.511Z,18.80
2019-01-24T08:26:33.436Z,24.20
2019-01-24T08:29:23.519Z,19.73
2019-01-24T08:32:13.581Z,19.00
2019-01-24T08:35:03.129Z,18.62
2019-01-24T08:37:52.899Z,21.07
2019-01-24T08:40:42.760Z,20.08
2019-01-24T08:43:32.780Z,15.58
2019-01-24T08:46:22.851Z,18.62
2019-01-24T08:49:12.461Z,19.82
2019-01-24T08:52:02.130Z,25.92
2019-01-24T08:54:52.223Z,17.75
2019-01-24T08:57:42.191Z,19.98
2019-01-24T09:00:32.146Z,34.43
2019-01-24T09:03:22.048Z,18.92
2019-01-24T09:06:12.051Z,17.98
2019-01-24T09:09:01.911Z,17.73
2019-01-24T09:11:53.352Z,17.57
2019-01-24T09:14:43.302Z,18.45
2019-01-24T09:17:33.086Z,17.73
2019-01-24T09:20:26.310Z,10.28
2019-01-24T09:23:16.438Z,15.78
2019-01-24T09:26:06.791Z,19.45
2019-01-24T09:28:56.518Z,17.98
2019-01-24T09:31:46.278Z,19.30
2019-01-24T09:34:36.072Z,13.88
2019-01-24T09:37:26.072Z,20.37
2019-01-24T09:40:16.867Z,21.68
2019-01-24T09:43:06.462Z,19.32
2019-01-24T09:45:56.198Z,17.95
2019-01-24T09:48:45.901Z,19.87
2019-01-24T09:51:36.081Z,18.12
2019-01-24T09:54:26.077Z,18.23
2019-01-24T09:57:16.154Z,20.30
2019-01-24T10:00:10.971Z,21.23
2019-01-24T10:03:00.617Z,17.95
2019-01-24T10:05:50.945Z,15.83
2019-01-24T10:08:40.812Z,19.98
2019-01-24T10:11:30.481Z,20.77
2019-01-24T10:14:20.134Z,16.52
2019-01-24T10:17:10.218Z,17.25
2019-01-24T10:20:00.408Z,18.17
2019-01-24T10:22:50.588Z,18.87
2019-01-24T10:25:40.798Z,15.38
2019-01-24T10:28:30.262Z,18.87
2019-01-24T10:31:20.720Z,14.87
2019-01-24T10:34:10.768Z,18.15
2019-01-24T10:37:00.608Z,20.35
2019-01-24T10:39:50.503Z,17.52
2019-01-24T10:42:40.381Z,18.82
2019-01-24T10:45:30.275Z,16.17
2019-01-24T10:48:20.184Z,16.62
2019-01-24T10:51:09.838Z,14.83
2019-01-24T10:53:59.691Z,16.50
2019-01-24T10:56:49.427Z,18.92
2019-01-24T10:59:39.078Z,16.80
2019-01-24T11:02:29.239Z,18.40
2019-01-24T11:05:19.138Z,19.05
2019-01-24T11:08:09.422Z,19.20
2019-01-24T11:10:59.231Z,19.45
2019-01-24T11:13:48.977Z,17.70
2019-01-24T11:16:38.985Z,20.00
2019-01-24T11:19:28.689Z,18.65
2019-01-24T11:22:18.418Z,19.77
2019-01-24T11:25:10.045Z,19.80
2019-01-24T11:27:59.718Z,20.92
2019-01-24T11:30:49.341Z,19.35
2019-01-24T11:33:39.932Z,19.90
2019-01-24T11:36:29.878Z,20.95
2019-01-24T11:39:19.871Z,20.05
2019-01-24T11:42:10.071Z,17.73
2019-01-24T11:45:00.438Z,18.10
2019-01-24T11:47:50.481Z,20.15
2019-01-24T11:50:40.322Z,19.55
2019-01-24T11:53:29.932Z,20.45
2019-01-24T11:56:20.071Z,18.75
2019-01-24T11:59:09.954Z,22.00
2019-01-24T12:02:00.261Z,21.40
2019-01-24T12:04:50.142Z,18.87
2019-01-24T12:07:41.770Z,20.30
2019-01-24T12:10:33.776Z,20.23
2019-01-24T12:13:31.561Z,19.65
2019-01-24T12:16:27.034Z,19.12
2019-01-24T12:19:20.901Z,20.20
2019-01-24T12:22:13.013Z,18.42
2019-01-24T12:25:05.611Z,19.80
2019-01-24T12:27:56.492Z,21.82
2019-01-24T12:30:47.192Z,21.17
2019-01-24T12:33:38.140Z,21.30
2019-01-24T12:36:29.481Z,19.30
2019-01-24T12:39:19.491Z,22.20
2019-01-24T12:42:10.512Z,20.37
2019-01-24T12:45:01.371Z,22.05
2019-01-24T12:47:52.814Z,22.95
2019-01-24T12:50:43.676Z,21.80
2019-01-24T12:53:34.401Z,21.35
2019-01-24T12:56:25.193Z,21.37
2019-01-24T12:59:17.150Z,19.85
2019-01-24T13:02:09.610Z,19.87
2019-01-24T13:05:01.531Z,19.35
2019-01-24T13:07:53.499Z,20.10
2019-01-24T13:10:46.242Z,20.48
2019-01-24T13:13:37.241Z,20.00
2019-01-24T13:16:27.964Z,19.98
2019-01-24T13:19:18.764Z,21.75
2019-01-24T13:22:10.142Z,21.12
2019-01-24T13:25:01.139Z,21.00
2019-01-24T13:27:52.183Z,21.45
2019-01-24T13:30:42.524Z,20.57
2019-01-24T13:33:33.352Z,19.40
2019-01-24T13:36:23.769Z,20.27
2019-01-24T13:39:14.509Z,19.95
2019-01-24T13:42:05.270Z,20.00
2019-01-24T13:44:58.621Z,18.80
2019-01-24T13:47:50.783Z,21.40
2019-01-24T13:50:45.790Z,22.35
2019-01-24T13:53:35.938Z,20.60
2019-01-24T13:56:29.939Z,25.23
2019-01-24T13:59:19.848Z,22.73
2019-01-24T14:02:09.619Z,21.07
2019-01-24T14:04:59.408Z,19.98
2019-01-24T14:07:49.139Z,20.32
2019-01-24T14:10:38.979Z,22.82
2019-01-24T14:13:33.002Z,21.35
2019-01-24T14:16:28.059Z,22.50
2019-01-24T14:19:18.568Z,22.65
2019-01-24T14:22:09.123Z,18.95
2019-01-24T14:24:59.700Z,23.85
2019-01-24T14:27:50.940Z,22.35
2019-01-24T14:30:42.231Z,20.65
2019-01-24T14:33:32.951Z,23.95
2019-01-24T14:36:29.437Z,21.75
2019-01-24T14:39:22.945Z,24.50
2019-01-24T14:42:13.689Z,21.65
2019-01-24T14:45:07.044Z,20.32
2019-01-24T14:47:57.903Z,22.22
2019-01-24T14:50:48.618Z,19.00
2019-01-24T14:53:39.325Z,23.92
2019-01-24T14:56:29.963Z,19.52
2019-01-24T14:59:20.942Z,20.85
2019-01-24T15:02:11.643Z,21.33
2019-01-24T15:05:03.164Z,22.67
2019-01-24T15:07:54.478Z,21.82
2019-01-24T15:10:45.273Z,22.30
2019-01-24T15:13:35.831Z,23.15
2019-01-24T15:16:26.023Z,20.50
2019-01-24T15:19:16.056Z,21.17
2019-01-24T15:22:06.651Z,21.50
2019-01-24T15:24:56.983Z,20.82
2019-01-24T15:27:49.409Z,21.20
2019-01-24T15:30:39.231Z,20.40
2019-01-24T15:33:30.200Z,23.00
2019-01-24T15:36:21.920Z,19.37
2019-01-24T15:39:12.532Z,19.95
2019-01-24T15:42:04.546Z,19.75
2019-01-24T15:44:56.298Z,19.17
2019-01-24T15:47:47.129Z,19.27
2019-01-24T15:50:42.403Z,20.57
2019-01-24T15:53:32.938Z,20.95
2019-01-24T15:56:23.064Z,18.95
2019-01-24T15:59:13.554Z,21.65
2019-01-24T16:02:04.091Z,22.25
2019-01-24T16:04:54.041Z,16.90
2019-01-24T16:07:44.013Z,18.52
2019-01-24T16:10:33.781Z,18.80
2019-01-24T16:13:23.778Z,17.05
2019-01-24T16:16:13.901Z,20.50
2019-01-24T16:19:06.222Z,21.80
2019-01-24T16:21:56.351Z,19.45
2019-01-24T16:24:46.332Z,19.25
2019-01-24T16:27:36.101Z,18.60
2019-01-24T16:30:27.920Z,19.70
2019-01-24T16:33:18.993Z,16.48
2019-01-24T16:36:08.899Z,21.00
2019-01-24T16:38:58.553Z,17.12
2019-01-24T16:41:48.446Z,20.15
2019-01-24T16:44:38.420Z,18.62
2019-01-24T16:47:28.530Z,17.12
2019-01-24T16:50:19.085Z,17.65
2019-01-24T16:53:08.680Z,17.65
2019-01-24T16:55:58.630Z,17.40
2019-01-24T16:58:48.469Z,16.40
2019-01-24T17:01:38.121Z,18.32
2019-01-24T17:04:27.920Z,19.62
2019-01-24T17:07:18.221Z,18.98
2019-01-24T17:10:10.040Z,20.97
2019-01-24T17:13:00.200Z,17.98
2019-01-24T17:15:50.485Z,19.80
2019-01-24T17:18:40.406Z,17.98
2019-01-24T17:21:30.100Z,18.40
2019-01-24T17:24:20.037Z,17.40
2019-01-24T17:27:09.737Z,17.30
2019-01-24T17:29:59.630Z,20.57
2019-01-24T17:32:49.600Z,17.82
2019-01-24T17:35:40.735Z,18.32
2019-01-24T17:38:31.898Z,18.00
2019-01-24T17:41:21.697Z,15.35
2019-01-24T17:44:11.348Z,20.32
2019-01-24T17:47:01.340Z,20.23
2019-01-24T17:49:51.591Z,21.00
2019-01-24T17:52:41.216Z,22.07
2019-01-24T17:55:36.304Z,17.30
2019-01-24T17:58:26.557Z,20.37
2019-01-24T18:01:18.279Z,17.62
2019-01-24T18:04:11.085Z,19.25
2019-01-24T18:07:02.101Z,20.85
2019-01-24T18:09:52.179Z,22.87
2019-01-24T18:12:44.184Z,18.90
2019-01-24T18:15:35.392Z,21.45
2019-01-24T18:22:03.587Z,20.85
2019-01-24T18:24:54.311Z,22.17
2019-01-24T18:27:45.004Z,21.48
2019-01-24T18:30:35.382Z,22.48
2019-01-24T18:33:25.477Z,22.15
2019-01-24T18:36:15.578Z,19.17
2019-01-24T18:39:09.921Z,21.30
2019-01-24T18:42:00.358Z,19.92
2019-01-24T18:44:50.650Z,22.20
2019-01-24T18:47:46.784Z,21.42
2019-01-24T18:50:36.777Z,21.82
2019-01-24T18:53:27.081Z,20.37
2019-01-24T18:56:17.263Z,20.27
2019-01-24T18:59:07.459Z,21.37
2019-01-24T19:01:57.228Z,22.32
2019-01-24T19:04:47.518Z,20.92
2019-01-24T19:07:38.273Z,21.02
2019-01-24T19:10:28.667Z,22.27
2019-01-24T19:13:18.924Z,20.97
2019-01-24T19:16:11.000Z,19.50
2019-01-24T19:19:01.214Z,20.65
2019-01-24T19:21:51.524Z,19.52
2019-01-24T19:24:41.819Z,21.30
2019-01-24T19:27:32.063Z,22.13
2019-01-24T19:30:24.915Z,19.57
2019-01-24T19:33:15.149Z,20.62
2019-01-24T19:36:04.918Z,21.60
2019-01-24T19:38:55.098Z,20.75
2019-01-24T19:41:44.779Z,22.02
2019-01-24T19:44:34.979Z,19.87
2019-01-24T19:47:24.928Z,19.48
2019-01-24T19:50:16.920Z,26.27
2019-01-24T19:53:07.303Z,22.13
2019-01-24T19:55:57.546Z,21.25
2019-01-24T19:58:47.280Z,20.82
2019-01-24T20:01:37.125Z,24.43
2019-01-24T20:04:26.995Z,22.75
2019-01-24T20:07:16.878Z,23.50
2019-01-24T20:10:09.286Z,22.75
2019-01-24T20:12:59.521Z,22.27
2019-01-24T20:15:49.264Z,21.20
2019-01-24T20:18:39.116Z,20.75
2019-01-24T20:21:28.915Z,20.37
2019-01-24T20:24:18.528Z,20.02
2019-01-24T20:27:08.465Z,19.82
2019-01-24T20:29:58.736Z,20.50
2019-01-24T20:32:49.014Z,19.67
2019-01-24T20:35:41.173Z,18.80
2019-01-24T20:38:31.168Z,17.55
2019-01-24T20:41:21.289Z,19.48
2019-01-24T20:44:11.275Z,19.27
2019-01-24T20:47:01.351Z,19.45
2019-01-24T20:49:51.628Z,19.45
2019-01-24T20:52:41.492Z,20.80
2019-01-24T20:55:31.582Z,21.55
2019-01-24T20:58:21.555Z,19.70
2019-01-24T21:01:11.709Z,20.12
2019-01-24T21:04:01.543Z,21.57
2019-01-24T21:06:51.346Z,19.90
2019-01-24T21:09:40.971Z,22.27
2019-01-24T21:12:31.128Z,22.98
2019-01-24T21:15:25.433Z,19.87
2019-01-24T21:18:15.313Z,19.12
2019-01-24T21:21:05.305Z,21.42
2019-01-24T21:23:55.584Z,20.57
2019-01-24T21:26:45.627Z,21.60
2019-01-24T21:29:35.426Z,19.02
2019-01-24T21:32:26.344Z,20.40
2019-01-24T21:35:16.906Z,19.27
2019-01-24T21:38:08.963Z,21.52
2019-01-24T21:41:25.215Z,18.77
2019-01-24T21:44:15.216Z,19.95
2019-01-24T21:47:05.008Z,20.52
2019-01-24T21:49:55.048Z,21.97
2019-01-24T21:52:45.099Z,19.80
2019-01-24T21:55:34.827Z,21.60
2019-01-24T21:58:24.704Z,19.70
2019-01-24T22:01:14.662Z,20.05
2019-01-24T22:04:04.710Z,19.15
2019-01-24T22:06:56.201Z,20.95
2019-01-24T22:09:46.183Z,21.70
2019-01-24T22:12:36.266Z,19.32
2019-01-24T22:15:28.206Z,23.50
2019-01-24T22:18:18.326Z,21.85
2019-01-24T22:21:08.497Z,20.30
2019-01-24T22:23:58.289Z,20.08
2019-01-24T22:26:48.127Z,20.15
2019-01-24T22:29:39.046Z,21.37
2019-01-24T22:32:29.355Z,19.90
2019-01-24T22:35:19.313Z,21.07
2019-01-24T22:38:09.395Z,21.70
2019-01-24T22:40:59.706Z,22.07
2019-01-24T22:43:50.265Z,19.55
2019-01-24T22:46:43.013Z,20.05
2019-01-24T22:49:32.833Z,20.80
2019-01-24T22:52:24.267Z,20.20
2019-01-24T22:55:15.454Z,23.07
2019-01-24T22:58:05.556Z,21.20
2019-01-24T23:01:23.036Z,19.45
2019-01-24T23:04:16.886Z,19.48
2019-01-24T23:07:06.834Z,20.02
2019-01-24T23:09:56.752Z,19.55
2019-01-24T23:12:47.126Z,21.42
2019-01-24T23:15:37.164Z,19.50
2019-01-24T23:18:27.083Z,19.55
2019-01-24T23:21:17.143Z,20.27
2019-01-24T23:24:07.564Z,19.10
2019-01-24T23:26:59.143Z,19.50
2019-01-24T23:29:49.254Z,17.55
2019-01-24T23:32:39.846Z,20.02
2019-01-24T23:35:32.308Z,19.87
2019-01-24T23:38:26.366Z,18.20
2019-01-24T23:41:16.242Z,18.45
2019-01-24T23:44:06.584Z,18.57
2019-01-24T23:46:56.703Z,17.35
2019-01-24T23:49:46.746Z,19.45
2019-01-24T23:52:36.595Z,19.65
2019-01-24T23:55:26.849Z,18.45
2019-01-24T23:58:16.776Z,18.30
